createdAt,value
2019-04-28T00:01:41.377Z,12.63
2019-04-28T00:04:11.598Z,10.03
2019-04-28T00:06:42.352Z,9.13
2019-04-28T00:09:13.362Z,16.87
2019-04-28T00:11:43.471Z,11.33
2019-04-28T00:14:13.662Z,10.57
2019-04-28T00:16:43.804Z,12.33
2019-04-28T00:19:13.875Z,13.03
2019-04-28T00:21:58.878Z,12.57
2019-04-28T00:24:51.512Z,13.60
2019-04-28T00:27:21.738Z,15.63
2019-04-28T00:29:52.905Z,11.97
2019-04-28T00:32:23.125Z,20.03
2019-04-28T00:34:53.184Z,12.40
2019-04-28T00:37:34.861Z,14.63
2019-04-28T00:40:07.242Z,16.13
2019-04-28T00:42:37.360Z,11.47
2019-04-28T00:45:09.230Z,16.57
2019-04-28T00:47:40.834Z,14.27
2019-04-28T00:50:11.776Z,14.00
2019-04-28T00:52:42.016Z,17.10
2019-04-28T00:55:12.168Z,17.40
2019-04-28T00:57:42.426Z,11.67
2019-04-28T01:00:13.591Z,11.30
2019-04-28T01:02:44.145Z,13.70
2019-04-28T01:05:14.552Z,12.70
2019-04-28T01:07:44.656Z,12.23
2019-04-28T01:10:15.118Z,14.37
2019-04-28T01:12:46.744Z,10.30
2019-04-28T01:15:39.529Z,12.43
2019-04-28T01:18:16.248Z,12.80
2019-04-28T01:20:46.307Z,8.93
2019-04-28T01:23:16.382Z,12.37
2019-04-28T01:25:50.064Z,25.37
2019-04-28T01:28:21.344Z,14.17
2019-04-28T01:31:16.576Z,13.20
2019-04-28T01:34:05.606Z,11.73
2019-04-28T01:36:37.474Z,11.67
2019-04-28T01:39:09.929Z,11.30
2019-04-28T01:41:39.911Z,15.60
2019-04-28T01:44:10.322Z,13.13
2019-04-28T01:46:40.524Z,12.30
2019-04-28T01:49:10.623Z,17.03
2019-04-28T01:51:41.596Z,13.73
2019-04-28T01:54:11.880Z,12.70
2019-04-28T01:56:41.938Z,13.07
2019-04-28T01:59:12.014Z,14.63
2019-04-28T02:01:42.378Z,18.27
2019-04-28T02:04:12.548Z,10.87
2019-04-28T02:06:42.626Z,16.57
2019-04-28T02:09:12.816Z,15.80
2019-04-28T02:11:42.905Z,13.80
2019-04-28T02:14:12.982Z,17.87
2019-04-28T02:16:43.087Z,20.43
2019-04-28T02:19:13.153Z,15.27
2019-04-28T02:21:49.641Z,20.63
2019-04-28T02:24:30.775Z,17.83
2019-04-28T02:27:01.696Z,14.67
2019-04-28T02:29:31.745Z,15.53
2019-04-28T02:32:02.479Z,17.90
2019-04-28T02:34:32.829Z,15.23
2019-04-28T02:37:02.886Z,18.77
2019-04-28T02:39:32.956Z,13.53
2019-04-28T02:42:03.033Z,16.37
2019-04-28T02:44:35.095Z,20.57
2019-04-28T02:47:05.043Z,17.97
2019-04-28T02:49:42.318Z,14.63
2019-04-28T02:52:22.449Z,18.47
2019-04-28T02:54:52.552Z,16.60
2019-04-28T02:57:22.661Z,20.90
2019-04-28T02:59:52.728Z,13.13
2019-04-28T03:02:22.918Z,14.83
2019-04-28T03:04:52.996Z,13.70
2019-04-28T03:07:23.079Z,18.17
2019-04-28T03:09:53.166Z,12.23
2019-04-28T03:12:23.239Z,12.23
2019-04-28T03:14:53.320Z,20.10
2019-04-28T03:17:23.404Z,13.13
2019-04-28T03:19:53.503Z,14.00
2019-04-28T03:22:23.588Z,13.97
2019-04-28T03:24:57.444Z,14.10
2019-04-28T03:27:34.681Z,14.60
2019-04-28T03:30:23.963Z,22.13
2019-04-28T03:33:00.236Z,12.83
2019-04-28T03:35:26.291Z,16.17
2019-04-28T03:37:56.464Z,14.90
2019-04-28T03:40:26.585Z,17.10
2019-04-28T03:42:59.464Z,16.97
2019-04-28T03:45:33.071Z,16.77
2019-04-28T03:48:03.143Z,13.20
2019-04-28T03:50:33.256Z,15.33
2019-04-28T03:53:03.337Z,19.13
2019-04-28T03:55:34.965Z,15.57
2019-04-28T03:58:05.215Z,15.23
2019-04-28T04:00:35.301Z,13.37
2019-04-28T04:03:05.361Z,13.30
2019-04-28T04:05:35.466Z,16.10
2019-04-28T04:08:05.547Z,12.33
2019-04-28T04:10:50.155Z,18.27
2019-04-28T04:13:33.000Z,15.87
2019-04-28T04:16:20.903Z,18.33
2019-04-28T04:18:53.620Z,14.30
2019-04-28T04:21:24.193Z,13.47
2019-04-28T04:23:54.279Z,15.20
2019-04-28T04:26:24.355Z,18.47
2019-04-28T04:28:54.429Z,20.40
2019-04-28T04:31:24.493Z,14.80
2019-04-28T04:33:54.580Z,12.27
2019-04-28T04:36:24.658Z,17.23
2019-04-28T04:38:54.728Z,16.00
2019-04-28T04:41:24.850Z,14.77
2019-04-28T04:43:54.922Z,18.53
2019-04-28T04:46:25.897Z,16.07
2019-04-28T04:48:56.013Z,12.73
2019-04-28T04:51:26.082Z,12.37
2019-04-28T04:53:56.151Z,15.37
2019-04-28T04:56:26.336Z,19.07
2019-04-28T04:58:56.589Z,13.50
2019-04-28T05:01:35.546Z,16.03
2019-04-28T05:04:14.709Z,15.43
2019-04-28T05:06:44.769Z,13.17
2019-04-28T05:09:14.878Z,10.17
2019-04-28T05:11:44.961Z,14.07
2019-04-28T05:14:15.062Z,14.43
2019-04-28T05:16:45.135Z,11.23
2019-04-28T05:19:15.233Z,10.97
2019-04-28T05:21:45.275Z,19.07
2019-04-28T05:24:40.423Z,14.53
2019-04-28T05:27:10.508Z,11.13
2019-04-28T05:29:40.607Z,20.90
2019-04-28T05:32:10.896Z,15.00
2019-04-28T05:34:46.725Z,19.73
2019-04-28T05:37:12.926Z,17.43
2019-04-28T05:39:43.054Z,13.07
2019-04-28T05:42:13.149Z,11.07
2019-04-28T05:44:43.240Z,14.80
2019-04-28T05:47:13.287Z,14.73
2019-04-28T05:50:07.252Z,11.33
2019-04-28T05:53:00.564Z,12.97
2019-04-28T05:56:02.295Z,14.67
2019-04-28T05:58:37.808Z,17.50
2019-04-28T06:01:21.888Z,17.57
2019-04-28T06:03:51.966Z,14.13
2019-04-28T06:06:24.221Z,10.23
2019-04-28T06:09:16.108Z,12.87
2019-04-28T06:11:46.185Z,11.90
2019-04-28T06:14:16.234Z,17.90
2019-04-28T06:16:46.338Z,14.70
2019-04-28T06:19:16.430Z,12.50
2019-04-28T06:21:46.500Z,10.13
2019-04-28T06:24:16.561Z,13.40
2019-04-28T06:26:46.666Z,16.90
2019-04-28T06:29:17.065Z,15.23
2019-04-28T06:31:47.188Z,14.33
2019-04-28T06:34:17.241Z,12.33
2019-04-28T06:36:47.369Z,14.13
2019-04-28T06:39:17.448Z,11.27
2019-04-28T06:41:47.546Z,10.93
2019-04-28T06:44:17.592Z,10.40
2019-04-28T06:46:47.691Z,14.00
2019-04-28T06:49:17.762Z,9.00
2019-04-28T06:51:47.846Z,12.93
2019-04-28T06:54:17.905Z,8.90
2019-04-28T06:56:48.032Z,13.97
2019-04-28T06:59:18.139Z,14.87
2019-04-28T07:01:48.246Z,12.70
2019-04-28T07:04:18.350Z,11.57
2019-04-28T07:06:48.471Z,10.97
2019-04-28T07:09:18.590Z,11.70
2019-04-28T07:11:48.657Z,11.03
2019-04-28T07:14:18.757Z,13.77
2019-04-28T07:16:48.919Z,11.23
2019-04-28T07:19:18.977Z,13.00
2019-04-28T07:22:12.001Z,8.93
2019-04-28T07:24:44.785Z,8.83
2019-04-28T07:27:14.025Z,13.80
2019-04-28T07:29:44.131Z,10.57
2019-04-28T07:32:14.307Z,15.07
2019-04-28T07:34:44.410Z,8.80
2019-04-28T07:37:14.492Z,14.60
2019-04-28T07:39:44.613Z,6.50
2019-04-28T07:42:14.707Z,15.07
2019-04-28T07:44:44.865Z,11.30
2019-04-28T07:47:14.998Z,15.83
2019-04-28T07:49:45.071Z,9.27
2019-04-28T07:52:24.540Z,10.47
2019-04-28T07:54:54.696Z,12.73
2019-04-28T07:57:24.934Z,9.83
2019-04-28T07:59:55.015Z,7.93
2019-04-28T08:02:25.438Z,12.07
2019-04-28T08:04:55.540Z,6.30
2019-04-28T08:07:25.767Z,10.47
2019-04-28T08:09:55.867Z,6.90
2019-04-28T08:12:25.992Z,7.90
2019-04-28T08:14:56.094Z,12.53
2019-04-28T08:17:26.201Z,16.93
2019-04-28T08:19:56.299Z,9.17
2019-04-28T08:22:26.414Z,6.90
2019-04-28T08:24:56.483Z,6.70
2019-04-28T08:27:26.631Z,15.77
2019-04-28T08:29:58.715Z,8.57
2019-04-28T08:32:47.654Z,14.63
2019-04-28T08:35:17.772Z,16.13
2019-04-28T08:37:47.835Z,8.10
2019-04-28T08:40:17.977Z,8.63
2019-04-28T08:42:48.066Z,12.07
2019-04-28T08:45:18.205Z,9.83
2019-04-28T08:47:48.352Z,10.50
2019-04-28T08:50:18.475Z,8.67
2019-04-28T08:52:48.562Z,8.57
2019-04-28T08:55:18.638Z,10.40
2019-04-28T08:57:48.772Z,8.77
2019-04-28T09:00:18.981Z,9.63
2019-04-28T09:02:49.130Z,10.27
2019-04-28T09:05:19.237Z,10.73
2019-04-28T09:07:49.356Z,9.87
2019-04-28T09:10:19.481Z,9.90
2019-04-28T09:12:49.594Z,11.17
2019-04-28T09:15:19.695Z,11.10
2019-04-28T09:17:49.841Z,9.57
2019-04-28T09:20:20.198Z,10.17
2019-04-28T09:22:50.274Z,10.63
2019-04-28T09:25:20.403Z,6.47
2019-04-28T09:27:50.521Z,9.47
2019-04-28T09:30:22.382Z,10.83
2019-04-28T09:32:52.514Z,15.90
2019-04-28T09:35:22.664Z,10.03
2019-04-28T09:37:55.265Z,10.93
2019-04-28T09:40:25.383Z,11.20
2019-04-28T09:43:01.279Z,8.10
2019-04-28T09:45:37.773Z,9.97
2019-04-28T09:48:07.871Z,7.57
2019-04-28T09:50:38.068Z,14.33
2019-04-28T09:53:08.154Z,7.23
2019-04-28T09:55:40.669Z,6.33
2019-04-28T09:58:11.060Z,7.50
2019-04-28T10:00:42.762Z,7.37
2019-04-28T10:03:12.856Z,9.73
2019-04-28T10:05:43.019Z,5.37
2019-04-28T10:08:13.159Z,10.80
2019-04-28T10:10:43.298Z,5.33
2019-04-28T10:13:13.499Z,6.60
2019-04-28T10:15:43.582Z,7.53
2019-04-28T10:18:13.704Z,5.93
2019-04-28T10:20:43.841Z,4.97
2019-04-28T10:23:13.946Z,5.47
2019-04-28T10:25:44.246Z,5.93
2019-04-28T10:28:14.417Z,5.67
2019-04-28T10:30:44.546Z,5.27
2019-04-28T10:33:14.694Z,4.27
2019-04-28T10:35:47.387Z,8.47
2019-04-28T10:38:17.504Z,5.00
2019-04-28T10:40:56.732Z,4.77
2019-04-28T10:43:29.942Z,4.73
2019-04-28T10:46:00.298Z,2.53
2019-04-28T10:48:30.501Z,6.93
2019-04-28T10:51:01.316Z,8.27
2019-04-28T10:53:31.517Z,6.97
2019-04-28T10:56:01.654Z,8.37
2019-04-28T10:58:31.717Z,3.20
2019-04-28T11:01:01.894Z,7.63
2019-04-28T11:03:32.013Z,5.80
2019-04-28T11:06:02.193Z,2.20
2019-04-28T11:09:03.508Z,6.57
2019-04-28T11:11:33.725Z,5.83
2019-04-28T11:14:03.882Z,4.43
2019-04-28T11:16:36.931Z,3.00
2019-04-28T11:19:07.395Z,8.30
2019-04-28T11:21:37.523Z,2.83
2019-04-28T11:24:07.726Z,2.57
2019-04-28T11:26:37.948Z,2.03
2019-04-28T11:29:08.212Z,4.57
2019-04-28T11:31:38.291Z,4.23
2019-04-28T11:34:33.422Z,5.13
2019-04-28T11:37:03.756Z,2.57
2019-04-28T11:39:36.486Z,3.90
2019-04-28T11:42:06.650Z,6.77
2019-04-28T11:44:36.754Z,7.53
2019-04-28T11:47:09.715Z,6.13
2019-04-28T11:49:39.826Z,5.00
2019-04-28T11:52:10.138Z,4.67
2019-04-28T11:54:40.274Z,2.77
2019-04-28T11:57:10.368Z,2.90
2019-04-28T11:59:41.939Z,4.37
2019-04-28T12:02:12.049Z,4.83
2019-04-28T12:04:42.213Z,3.40
2019-04-28T12:07:12.445Z,5.40
2019-04-28T12:10:03.726Z,1.53
2019-04-28T12:12:33.016Z,4.07
2019-04-28T12:15:22.049Z,1.97
2019-04-28T12:18:10.011Z,3.00
2019-04-28T12:20:40.548Z,2.03
2019-04-28T12:23:10.644Z,2.93
2019-04-28T12:25:40.916Z,1.53
2019-04-28T12:28:11.020Z,2.40
2019-04-28T12:30:41.172Z,1.73
2019-04-28T12:33:12.986Z,1.50
2019-04-28T12:35:48.097Z,4.00
2019-04-28T12:38:15.231Z,1.93
2019-04-28T12:40:45.400Z,2.70
2019-04-28T12:43:15.495Z,3.07
2019-04-28T12:45:45.625Z,1.57
2019-04-28T12:48:15.757Z,3.53
2019-04-28T12:50:50.586Z,3.80
2019-04-28T12:53:20.909Z,2.50
2019-04-28T12:55:51.083Z,2.20
2019-04-28T12:58:21.194Z,1.30
2019-04-28T13:01:07.502Z,4.03
2019-04-28T13:03:42.015Z,1.37
2019-04-28T13:06:14.740Z,1.73
2019-04-28T13:08:44.848Z,1.60
2019-04-28T13:11:14.949Z,3.00
2019-04-28T13:13:46.891Z,3.00
2019-04-28T13:16:16.924Z,4.00
2019-04-28T13:18:47.048Z,8.90
2019-04-28T13:21:17.185Z,5.23
2019-04-28T13:23:47.360Z,2.27
2019-04-28T13:26:17.556Z,4.17
2019-04-28T13:28:47.726Z,3.20
2019-04-28T13:31:17.847Z,5.57
2019-04-28T13:33:56.472Z,3.97
2019-04-28T13:36:19.982Z,5.67
2019-04-28T13:38:50.119Z,3.53
2019-04-28T13:41:22.425Z,2.67
2019-04-28T13:43:53.226Z,2.97
2019-04-28T13:46:24.401Z,3.63
2019-04-28T13:48:58.082Z,3.47
2019-04-28T13:51:28.278Z,4.50
2019-04-28T13:54:00.046Z,1.67
2019-04-28T13:56:32.392Z,8.33
2019-04-28T13:59:21.126Z,3.57
2019-04-28T14:02:01.536Z,5.03
2019-04-28T14:04:47.426Z,2.63
2019-04-28T14:07:18.511Z,1.67
2019-04-28T14:09:50.089Z,5.57
2019-04-28T14:12:21.176Z,2.63
2019-04-28T14:14:51.751Z,2.10
2019-04-28T14:17:22.535Z,1.73
2019-04-28T14:19:52.638Z,5.40
2019-04-28T14:22:23.240Z,7.27
2019-04-28T14:24:53.701Z,1.40
2019-04-28T14:27:24.043Z,2.60
2019-04-28T14:29:54.268Z,3.17
2019-04-28T14:32:24.379Z,1.17
2019-04-28T14:34:54.667Z,4.07
2019-04-28T14:37:24.885Z,1.30
2019-04-28T14:39:55.809Z,1.63
2019-04-28T14:42:25.971Z,3.30
2019-04-28T14:44:56.548Z,1.73
2019-04-28T14:47:30.662Z,3.17
2019-04-28T14:50:02.908Z,0.90
2019-04-28T14:52:33.737Z,1.00
2019-04-28T14:55:03.983Z,2.40
2019-04-28T14:57:34.124Z,0.63
2019-04-28T15:00:04.757Z,2.27
2019-04-28T15:02:42.560Z,3.17
2019-04-28T15:05:39.303Z,3.30
2019-04-28T15:08:41.515Z,4.80
2019-04-28T15:11:17.907Z,8.30
2019-04-28T15:13:48.182Z,2.00
2019-04-28T15:16:18.683Z,1.67
2019-04-28T15:18:48.819Z,0.73
2019-04-28T15:21:19.284Z,0.67
2019-04-28T15:23:52.400Z,1.97
2019-04-28T15:26:22.914Z,2.27
2019-04-28T15:28:53.588Z,1.00
2019-04-28T15:31:23.846Z,1.00
2019-04-28T15:33:54.180Z,1.00
2019-04-28T15:36:24.853Z,2.90
2019-04-28T15:38:54.990Z,2.27
2019-04-28T15:41:25.416Z,1.80
2019-04-28T15:43:55.714Z,1.00
2019-04-28T15:46:25.936Z,2.40
2019-04-28T15:48:56.386Z,1.90
2019-04-28T15:51:30.594Z,2.00
2019-04-28T15:54:01.016Z,2.47
2019-04-28T15:57:02.462Z,0.80
2019-04-28T15:59:36.491Z,3.20
2019-04-28T16:02:07.092Z,0.63
2019-04-28T16:04:38.572Z,1.57
2019-04-28T16:07:08.710Z,1.20
2019-04-28T16:09:41.030Z,2.03
2019-04-28T16:12:11.044Z,1.40
2019-04-28T16:14:41.413Z,2.97
2019-04-28T16:17:11.539Z,1.40
2019-04-28T16:19:41.796Z,2.20
2019-04-28T16:22:12.573Z,2.33
2019-04-28T16:24:44.794Z,1.57
2019-04-28T16:27:15.442Z,2.13
2019-04-28T16:29:45.692Z,1.67
2019-04-28T16:32:15.811Z,3.43
2019-04-28T16:34:45.962Z,2.70
2019-04-28T16:37:16.117Z,1.93
2019-04-28T16:39:46.208Z,1.30
2019-04-28T16:42:31.217Z,1.47
2019-04-28T16:45:22.265Z,1.20
2019-04-28T16:47:52.464Z,2.40
2019-04-28T16:50:22.554Z,3.93
2019-04-28T16:52:52.704Z,4.23
2019-04-28T16:55:27.289Z,4.10
2019-04-28T16:58:34.802Z,1.27
2019-04-28T17:01:20.267Z,2.90
2019-04-28T17:03:50.398Z,2.10
2019-04-28T17:06:20.535Z,2.07
2019-04-28T17:08:50.672Z,2.00
2019-04-28T17:11:20.870Z,0.93
2019-04-28T17:13:51.079Z,1.90
2019-04-28T17:16:21.254Z,2.27
2019-04-28T17:18:51.405Z,1.80
2019-04-28T17:21:21.627Z,1.53
2019-04-28T17:23:51.783Z,3.73
2019-04-28T17:26:21.901Z,4.53
2019-04-28T17:28:52.126Z,0.60
2019-04-28T17:31:22.285Z,0.73
2019-04-28T17:33:52.466Z,1.90
2019-04-28T17:36:22.770Z,1.47
2019-04-28T17:38:53.028Z,0.90
2019-04-28T17:41:26.822Z,1.83
2019-04-28T17:43:56.976Z,2.10
2019-04-28T17:46:27.121Z,4.17
2019-04-28T17:48:58.723Z,0.90
2019-04-28T17:51:29.091Z,3.53
2019-04-28T17:53:59.658Z,1.00
2019-04-28T17:56:29.852Z,4.37
2019-04-28T17:59:00.089Z,2.10
2019-04-28T18:01:58.616Z,1.87
2019-04-28T18:04:39.773Z,3.63
2019-04-28T18:07:14.046Z,3.47
2019-04-28T18:09:44.319Z,2.47
2019-04-28T18:12:14.465Z,4.57
2019-04-28T18:14:46.481Z,1.37
2019-04-28T18:17:44.892Z,3.57
2019-04-28T18:20:15.211Z,3.00
2019-04-28T18:22:45.339Z,2.50
2019-04-28T18:25:15.571Z,3.53
2019-04-28T18:27:45.786Z,3.47
2019-04-28T18:30:17.854Z,3.03
2019-04-28T18:33:00.228Z,3.80
2019-04-28T18:35:38.386Z,2.77
2019-04-28T18:38:14.866Z,3.53
2019-04-28T18:41:09.907Z,2.70
2019-04-28T18:43:59.609Z,5.43
2019-04-28T18:46:31.107Z,6.53
2019-04-28T18:49:01.490Z,2.07
2019-04-28T18:51:31.823Z,1.70
2019-04-28T18:54:04.374Z,2.63
2019-04-28T18:56:34.749Z,3.23
2019-04-28T18:59:06.529Z,5.93
2019-04-28T19:01:54.748Z,2.17
2019-04-28T19:04:25.098Z,2.73
2019-04-28T19:07:04.812Z,2.57
2019-04-28T19:09:59.283Z,2.77
2019-04-28T19:12:42.861Z,1.77
2019-04-28T19:15:37.881Z,1.73
2019-04-28T19:18:12.635Z,4.40
2019-04-28T19:20:48.845Z,1.83
2019-04-28T19:23:19.177Z,2.00
2019-04-28T19:25:49.555Z,2.93
2019-04-28T19:28:23.333Z,4.97
2019-04-28T19:30:54.099Z,3.23
2019-04-28T19:33:24.525Z,5.00
2019-04-28T19:35:55.040Z,2.90
2019-04-28T19:38:25.463Z,3.97
2019-04-28T19:40:55.998Z,3.10
2019-04-28T19:43:26.467Z,3.83
2019-04-28T19:45:58.566Z,4.73
2019-04-28T19:48:29.333Z,3.27
2019-04-28T19:50:59.990Z,4.70
2019-04-28T19:53:31.920Z,2.47
2019-04-28T19:56:14.585Z,5.03
2019-04-28T19:58:56.645Z,3.13
2019-04-28T20:01:29.145Z,3.00
2019-04-28T20:04:00.056Z,3.40
2019-04-28T20:06:31.924Z,5.30
2019-04-28T20:09:05.450Z,3.70
2019-04-28T20:11:35.872Z,3.80
2019-04-28T20:14:06.104Z,3.57
2019-04-28T20:16:36.433Z,5.67
2019-04-28T20:19:06.688Z,4.10
2019-04-28T20:21:36.966Z,4.80
2019-04-28T20:24:09.772Z,3.90
2019-04-28T20:26:41.088Z,3.03
2019-04-28T20:29:11.347Z,3.17
2019-04-28T20:31:41.517Z,8.80
2019-04-28T20:34:14.755Z,4.87
2019-04-28T20:36:59.299Z,2.20
2019-04-28T20:39:31.284Z,3.37
2019-04-28T20:42:19.131Z,2.83
2019-04-28T20:44:49.574Z,3.53
2019-04-28T20:47:19.700Z,2.63
2019-04-28T20:49:49.822Z,6.40
2019-04-28T20:52:19.941Z,2.67
2019-04-28T20:54:50.052Z,7.07
2019-04-28T20:57:20.145Z,4.53
2019-04-28T20:59:50.282Z,2.37
2019-04-28T21:02:20.394Z,9.07
2019-04-28T21:04:50.498Z,4.33
2019-04-28T21:07:20.658Z,3.10
2019-04-28T21:09:50.747Z,2.40
2019-04-28T21:12:20.851Z,2.63
2019-04-28T21:14:51.029Z,3.63
2019-04-28T21:17:21.154Z,3.77
2019-04-28T21:19:51.270Z,3.93
2019-04-28T21:22:21.355Z,3.40
2019-04-28T21:24:51.533Z,6.13
2019-04-28T21:27:21.604Z,3.47
2019-04-28T21:29:51.842Z,4.57
2019-04-28T21:32:21.903Z,3.50
2019-04-28T21:34:52.073Z,7.27
2019-04-28T21:37:22.179Z,3.23
2019-04-28T21:39:52.333Z,5.67
2019-04-28T21:42:24.509Z,5.70
2019-04-28T21:45:13.606Z,7.67
2019-04-28T21:47:43.687Z,6.53
2019-04-28T21:50:13.774Z,5.83
2019-04-28T21:52:43.872Z,4.10
2019-04-28T21:55:14.006Z,5.80
2019-04-28T21:57:47.025Z,9.23
2019-04-28T22:00:18.108Z,5.33
2019-04-28T22:02:48.182Z,6.57
2019-04-28T22:05:29.913Z,5.23
2019-04-28T22:07:50.051Z,6.20
2019-04-28T22:10:20.141Z,8.97
2019-04-28T22:12:50.227Z,7.27
2019-04-28T22:15:20.303Z,6.93
2019-04-28T22:17:50.438Z,7.03
2019-04-28T22:20:20.493Z,6.70
2019-04-28T22:22:50.620Z,4.47
2019-04-28T22:25:22.605Z,8.60
2019-04-28T22:27:52.688Z,7.17
2019-04-28T22:30:22.779Z,6.40
2019-04-28T22:32:52.881Z,9.23
2019-04-28T22:35:22.957Z,7.03
2019-04-28T22:37:53.018Z,8.50
2019-04-28T22:40:23.130Z,9.97
2019-04-28T22:42:53.221Z,8.17
2019-04-28T22:45:23.315Z,7.17
2019-04-28T22:47:53.370Z,8.30
2019-04-28T22:50:38.090Z,6.73
2019-04-28T22:53:08.157Z,9.13
2019-04-28T22:55:43.775Z,9.77
2019-04-28T22:58:28.730Z,8.27
2019-04-28T23:01:02.910Z,9.73
2019-04-28T23:03:38.602Z,10.80
2019-04-28T23:06:10.456Z,12.40
2019-04-28T23:08:40.478Z,8.00
2019-04-28T23:11:10.580Z,7.67
2019-04-28T23:13:40.643Z,7.70
2019-04-28T23:16:10.759Z,7.33
2019-04-28T23:18:40.798Z,11.57
2019-04-28T23:21:29.067Z,18.07
2019-04-28T23:23:59.134Z,12.07
2019-04-28T23:26:29.341Z,11.07
2019-04-28T23:28:59.470Z,15.40
2019-04-28T23:31:29.558Z,11.57
2019-04-28T23:33:59.651Z,11.93
2019-04-28T23:36:29.744Z,13.20
2019-04-28T23:38:59.838Z,9.73
2019-04-28T23:41:35.857Z,18.13
2019-04-28T23:44:06.166Z,12.93
2019-04-28T23:46:53.948Z,11.30
2019-04-28T23:49:24.228Z,10.87
2019-04-28T23:52:13.293Z,16.00
2019-04-28T23:54:44.828Z,11.20
2019-04-28T23:57:14.941Z,12.27
2019-04-28T23:59:45.299Z,14.30
